Time;durP1;ratioP1;P1;durP2;ratioP2;P2;SDS_P1;SDS_P2;PMS_P1;PMS_P2;Temp;Humidity;BMP_temperature;BMP_pressure;BME280_temperature;BME280_humidity;BME280_pressure;Samples;Min_cycle;Max_cycle;Signal;HPM_P1;HPM_P2
2022/11/10 00:00:32;;;;;;;4.90;1.50;;;12.80;99.90;;;;;;4964455;28;20230;-74
2022/11/10 00:03:03;;;;;;;3.40;1.40;;;12.70;99.90;;;;;;4956461;28;20187;-73
2022/11/10 00:05:30;;;;;;;5.20;1.50;;;12.70;99.90;;;;;;4989559;28;20626;-73
2022/11/10 00:07:55;;;;;;;2.53;1.55;;;12.70;99.90;;;;;;4980427;28;20234;-73
2022/11/10 00:10:21;;;;;;;6.78;1.63;;;12.70;99.90;;;;;;4974256;28;20221;-74
2022/11/10 00:12:47;;;;;;;4.05;1.13;;;12.70;99.90;;;;;;4971907;28;20214;-73
2022/11/10 00:17:59;;;;;;;6.13;1.50;;;12.70;99.90;;;;;;4974938;28;20288;-73
2022/11/10 00:20:25;;;;;;;3.30;1.50;;;12.80;99.90;;;;;;4966877;28;20226;-74
2022/11/10 00:22:50;;;;;;;5.13;1.37;;;12.70;99.90;;;;;;4987757;28;20218;-74
2022/11/10 00:25:16;;;;;;;3.43;1.37;;;12.70;99.90;;;;;;4977329;28;20232;-74
2022/11/10 00:27:42;;;;;;;4.87;1.77;;;12.80;99.90;;;;;;4968559;28;20214;-73
2022/11/10 00:30:08;;;;;;;8.27;1.95;;;12.80;99.90;;;;;;4973374;28;20693;-74
2022/11/10 00:32:33;;;;;;;4.05;1.25;;;12.80;99.90;;;;;;4955732;28;20215;-75
2022/11/10 00:34:59;;;;;;;3.07;1.73;;;12.90;99.90;;;;;;4946195;28;20605;-74
2022/11/10 00:37:24;;;;;;;4.80;1.73;;;12.90;99.90;;;;;;4954524;28;20289;-75
2022/11/10 00:39:50;;;;;;;5.22;1.73;;;12.90;99.90;;;;;;4951349;28;20238;-75
2022/11/10 00:42:16;;;;;;;4.53;1.67;;;12.90;99.90;;;;;;4952037;28;20516;-74
2022/11/10 00:44:41;;;;;;;5.13;1.95;;;12.90;99.90;;;;;;4957444;28;20187;-75
2022/11/10 00:47:07;;;;;;;4.20;2.13;;;12.90;99.90;;;;;;4969971;28;20298;-73
2022/11/10 00:49:32;;;;;;;3.60;1.90;;;12.90;99.90;;;;;;4964957;28;20245;-74
2022/11/10 00:51:58;;;;;;;3.63;1.85;;;12.90;99.90;;;;;;4970451;28;20967;-73
2022/11/10 00:54:24;;;;;;;4.65;2.20;;;12.90;99.90;;;;;;4951267;28;20183;-74
2022/11/10 00:56:50;;;;;;;5.27;1.80;;;12.90;99.90;;;;;;4949756;28;20591;-75
2022/11/10 00:59:15;;;;;;;6.47;1.60;;;12.90;99.90;;;;;;4955820;28;20210;-74
2022/11/10 01:01:41;;;;;;;5.15;1.83;;;13.00;99.90;;;;;;4953262;28;20290;-75
2022/11/10 01:04:07;;;;;;;6.28;2.30;;;13.00;99.90;;;;;;4951558;28;20657;-75
2022/11/10 01:06:32;;;;;;;5.72;1.73;;;13.00;99.90;;;;;;4956546;28;20249;-75
2022/11/10 01:08:58;;;;;;;5.97;1.80;;;12.90;99.90;;;;;;4963338;28;20669;-73
2022/11/10 01:11:26;;;;;;;7.45;2.17;;;13.00;99.90;;;;;;4977880;28;20213;-73
2022/11/10 01:13:52;;;;;;;3.60;1.45;;;13.00;99.90;;;;;;4971656;28;20736;-73
2022/11/10 01:16:28;;;;;;;3.95;1.85;;;13.00;99.90;;;;;;4972597;28;20260;-75
2022/11/10 01:18:56;;;;;;;4.90;1.50;;;13.00;99.90;;;;;;4971017;28;20296;-74
2022/11/10 01:21:23;;;;;;;5.38;1.60;;;13.00;99.90;;;;;;4970075;28;20182;-74
2022/11/10 01:23:49;;;;;;;5.30;1.95;;;12.90;99.90;;;;;;4968881;28;20182;-75
2022/11/10 01:26:16;;;;;;;3.30;1.70;;;12.90;99.90;;;;;;4974781;28;20347;-76
2022/11/10 01:28:41;;;;;;;4.40;1.37;;;12.90;99.90;;;;;;4970103;28;20672;-75
2022/11/10 01:31:10;;;;;;;5.60;1.50;;;12.90;99.90;;;;;;4973603;28;20302;-75
2022/11/10 01:33:36;;;;;;;4.80;1.25;;;12.90;99.90;;;;;;4972158;28;20576;-76
2022/11/10 01:36:03;;;;;;;5.57;1.70;;;12.90;99.90;;;;;;4965109;28;20206;-75
2022/11/10 01:38:31;;;;;;;4.73;1.60;;;12.90;99.90;;;;;;4972789;28;20605;-75
2022/11/10 01:40:58;;;;;;;4.35;1.90;;;12.90;99.90;;;;;;4969014;28;20210;-77
2022/11/10 01:43:24;;;;;;;5.93;1.63;;;12.90;99.90;;;;;;4964351;28;20207;-76
2022/11/10 01:45:58;;;;;;;5.13;1.50;;;12.90;99.90;;;;;;4970658;28;20229;-76
2022/11/10 01:48:45;;;;;;;6.45;2.05;;;12.90;99.90;;;;;;4948940;28;20260;-77
2022/11/10 01:51:29;;;;;;;3.45;1.33;;;12.90;99.90;;;;;;4956046;28;20239;-79
2022/11/10 01:54:09;;;;;;;4.03;1.52;;;12.90;99.90;;;;;;4951242;28;20175;-78
2022/11/10 01:56:40;;;;;;;2.97;1.63;;;12.90;99.90;;;;;;4946068;28;20218;-76
2022/11/10 01:59:11;;;;;;;4.05;1.67;;;12.80;99.90;;;;;;4956553;28;20227;-76
2022/11/10 02:01:37;;;;;;;4.72;1.92;;;12.80;99.90;;;;;;4948009;28;20207;-77
2022/11/10 02:04:06;;;;;;;4.38;1.75;;;12.90;99.90;;;;;;4945187;28;20237;-80
2022/11/10 02:06:36;;;;;;;2.78;1.45;;;12.80;99.90;;;;;;4955502;28;20286;-78
2022/11/10 02:09:02;;;;;;;4.82;1.40;;;12.80;99.90;;;;;;4948583;28;20208;-78
2022/11/10 02:11:29;;;;;;;4.78;2.00;;;12.80;99.90;;;;;;4961956;28;20701;-81
2022/11/10 02:13:55;;;;;;;6.00;1.73;;;12.80;99.90;;;;;;4959290;28;21154;-78
2022/11/10 02:16:21;;;;;;;5.80;1.70;;;12.80;99.90;;;;;;4950536;28;20234;-77
2022/11/10 02:18:48;;;;;;;4.97;1.65;;;12.80;99.90;;;;;;4953197;28;20278;-74
2022/11/10 02:21:17;;;;;;;3.83;1.70;;;12.80;99.90;;;;;;4952344;28;20178;-74
2022/11/10 02:23:52;;;;;;;4.07;1.52;;;12.80;99.90;;;;;;4943858;28;20224;-76
2022/11/10 02:26:26;;;;;;;6.93;1.70;;;12.80;99.90;;;;;;4969980;28;20263;-75
2022/11/10 02:28:52;;;;;;;6.13;1.70;;;12.80;99.90;;;;;;4966006;28;20601;-74
2022/11/10 02:31:18;;;;;;;5.67;1.63;;;12.80;99.90;;;;;;4966499;28;20213;-74
2022/11/10 02:33:43;;;;;;;5.90;1.75;;;12.80;99.90;;;;;;4967066;28;20317;-77
2022/11/10 02:36:09;;;;;;;2.50;1.33;;;12.80;99.90;;;;;;4966868;28;20206;-76
2022/11/10 02:38:35;;;;;;;3.38;1.50;;;12.80;99.90;;;;;;4988508;28;20640;-75
2022/11/10 02:41:01;;;;;;;5.20;1.90;;;12.80;99.90;;;;;;4966868;28;20729;-75
2022/11/10 02:43:27;;;;;;;3.28;1.63;;;12.90;99.90;;;;;;4953025;28;20203;-76
2022/11/10 02:45:53;;;;;;;7.43;2.10;;;13.00;99.90;;;;;;4952372;28;20217;-75
2022/11/10 02:48:19;;;;;;;5.97;2.08;;;12.90;99.90;;;;;;4953230;28;20182;-76
2022/11/10 02:50:44;;;;;;;5.38;1.67;;;12.90;99.90;;;;;;4942091;28;20203;-76
2022/11/10 02:53:10;;;;;;;5.20;1.70;;;12.90;99.90;;;;;;4957369;28;20223;-74
2022/11/10 02:55:36;;;;;;;7.03;1.60;;;12.80;99.90;;;;;;4955948;28;20223;-76
2022/11/10 02:58:02;;;;;;;9.33;2.53;;;12.80;99.90;;;;;;4959338;28;20230;-75
2022/11/10 03:00:28;;;;;;;3.13;1.80;;;12.80;99.90;;;;;;4955467;28;20226;-75
2022/11/10 03:02:57;;;;;;;6.00;1.83;;;12.70;99.90;;;;;;4946986;28;20188;-74
2022/11/10 03:05:23;;;;;;;5.20;2.07;;;12.80;99.90;;;;;;4954433;28;20304;-75
2022/11/10 03:08:00;;;;;;;4.80;2.10;;;12.80;99.90;;;;;;4949807;28;20238;-75
2022/11/10 03:10:27;;;;;;;4.97;1.83;;;12.80;99.90;;;;;;4945661;28;20229;-75
2022/11/10 03:12:55;;;;;;;6.00;1.90;;;12.80;99.90;;;;;;4953072;28;20273;-75
2022/11/10 03:15:21;;;;;;;5.07;1.73;;;12.80;99.90;;;;;;4955242;28;20190;-76
2022/11/10 03:17:46;;;;;;;5.73;2.20;;;12.70;99.90;;;;;;4943644;28;20211;-75
2022/11/10 03:20:12;;;;;;;3.67;1.75;;;12.70;99.90;;;;;;4961207;28;20322;-74
2022/11/10 03:22:38;;;;;;;4.83;1.80;;;12.70;99.90;;;;;;4952468;28;20748;-75
2022/11/10 03:25:04;;;;;;;6.33;1.77;;;12.70;99.90;;;;;;4963416;28;20263;-76
2022/11/10 03:27:29;;;;;;;6.97;1.87;;;12.70;99.90;;;;;;4959140;28;20736;-74
2022/11/10 03:29:55;;;;;;;6.50;2.53;;;12.70;99.90;;;;;;4950251;28;20205;-74
2022/11/10 03:32:20;;;;;;;4.50;1.70;;;12.60;99.90;;;;;;4957736;28;20301;-75
2022/11/10 03:34:46;;;;;;;4.17;1.97;;;12.60;99.90;;;;;;4954050;28;20728;-75
2022/11/10 03:37:11;;;;;;;6.37;2.20;;;12.60;99.90;;;;;;4948746;28;20238;-74
2022/11/10 03:39:38;;;;;;;7.40;2.37;;;12.50;99.90;;;;;;4969677;28;20214;-76
2022/11/10 03:42:04;;;;;;;6.43;2.07;;;12.50;99.90;;;;;;4969119;28;20182;-74
2022/11/10 03:44:30;;;;;;;4.87;1.73;;;12.40;99.90;;;;;;4966726;28;20380;-74
2022/11/10 03:46:55;;;;;;;7.23;2.20;;;12.40;99.90;;;;;;4988033;28;20637;-75
2022/11/10 03:49:21;;;;;;;6.03;2.07;;;12.40;99.90;;;;;;4969261;28;20576;-74
2022/11/10 03:51:46;;;;;;;4.93;1.93;;;12.40;99.90;;;;;;4964207;28;20262;-75
2022/11/10 03:54:12;;;;;;;4.97;2.00;;;12.40;99.90;;;;;;4971090;28;20196;-75
2022/11/10 03:56:38;;;;;;;10.07;2.43;;;12.40;99.90;;;;;;4968487;28;20209;-75
2022/11/10 03:59:03;;;;;;;4.67;2.13;;;12.30;99.90;;;;;;4975760;28;20233;-75
2022/11/10 04:01:29;;;;;;;7.33;1.93;;;12.30;99.90;;;;;;4970932;28;20230;-75
2022/11/10 04:03:55;;;;;;;8.47;2.33;;;12.30;99.90;;;;;;4964958;28;20207;-74
2022/11/10 04:09:06;;;;;;;5.00;2.07;;;12.20;99.90;;;;;;4971947;28;20206;-73
2022/11/10 04:17:02;;;;;;;4.40;2.10;;;12.10;99.90;;;;;;4967645;28;20245;-74
2022/11/10 04:19:28;;;;;;;5.40;2.00;;;12.10;99.90;;;;;;4965944;28;20214;-74
2022/11/10 04:21:54;;;;;;;7.40;2.17;;;12.10;99.90;;;;;;4970193;28;20209;-74
2022/11/10 04:24:19;;;;;;;8.00;1.90;;;12.10;99.90;;;;;;4968159;28;20579;-74
2022/11/10 04:26:47;;;;;;;7.53;2.50;;;12.00;99.90;;;;;;4984125;28;20245;-73
2022/11/10 04:29:16;;;;;;;4.03;2.30;;;12.00;99.90;;;;;;4971082;28;20237;-73
2022/11/10 04:31:42;;;;;;;5.87;2.27;;;12.00;99.90;;;;;;4969814;28;20221;-73
2022/11/10 04:34:10;;;;;;;7.53;2.47;;;11.90;99.90;;;;;;4971269;28;20690;-74
2022/11/10 04:36:38;;;;;;;6.13;1.93;;;11.90;99.90;;;;;;4968265;28;20217;-74
2022/11/10 04:39:04;;;;;;;5.80;2.23;;;11.90;99.90;;;;;;4966300;28;20222;-72
2022/11/10 04:41:30;;;;;;;8.33;1.90;;;11.80;99.90;;;;;;4969481;28;20215;-73
2022/11/10 04:43:57;;;;;;;4.73;2.10;;;11.80;99.90;;;;;;4965365;28;20215;-73
2022/11/10 04:46:37;;;;;;;8.17;2.37;;;11.70;99.90;;;;;;4966053;28;20202;-72
2022/11/10 04:49:05;;;;;;;6.53;2.10;;;11.70;99.90;;;;;;4969980;28;20215;-73
2022/11/10 04:51:35;;;;;;;6.33;2.73;;;11.70;99.90;;;;;;4964175;28;20267;-73
2022/11/10 04:54:01;;;;;;;5.13;2.03;;;11.70;99.90;;;;;;4969398;28;20189;-74
2022/11/10 04:56:28;;;;;;;5.37;1.83;;;11.70;99.90;;;;;;4964581;28;20219;-73
2022/11/10 04:58:54;;;;;;;4.07;2.00;;;11.70;99.90;;;;;;4965334;28;20238;-73
2022/11/10 05:01:22;;;;;;;4.13;1.77;;;11.70;99.90;;;;;;4970614;28;20233;-73
2022/11/10 05:03:49;;;;;;;8.03;2.43;;;11.60;99.90;;;;;;4969218;28;20265;-73
2022/11/10 05:06:14;;;;;;;6.47;2.40;;;11.60;99.90;;;;;;4965119;28;20189;-73
2022/11/10 05:08:41;;;;;;;9.13;2.73;;;11.60;99.90;;;;;;4975157;28;20194;-75
2022/11/10 05:11:07;;;;;;;7.40;2.40;;;11.50;99.90;;;;;;4969865;28;20297;-73
2022/11/10 05:13:33;;;;;;;11.50;2.83;;;11.50;99.90;;;;;;4965289;28;20210;-73
2022/11/10 05:15:59;;;;;;;9.63;2.33;;;11.50;99.90;;;;;;4967831;28;20214;-74
2022/11/10 05:18:25;;;;;;;6.53;2.20;;;11.50;99.90;;;;;;4962241;28;20262;-74
2022/11/10 05:20:52;;;;;;;8.77;2.63;;;11.50;99.90;;;;;;4970857;28;20341;-73
2022/11/10 05:23:36;;;;;;;5.00;1.90;;;11.40;99.90;;;;;;4964109;28;20281;-73
2022/11/10 05:26:05;;;;;;;7.87;2.60;;;11.40;99.90;;;;;;4944099;28;20236;-73
2022/11/10 05:28:30;;;;;;;7.17;2.40;;;11.40;99.90;;;;;;4951090;28;20286;-73
2022/11/10 05:30:56;;;;;;;5.20;2.60;;;11.40;99.90;;;;;;4948588;28;20355;-74
2022/11/10 05:33:22;;;;;;;7.30;2.57;;;11.40;99.90;;;;;;4945599;28;20211;-73
2022/11/10 05:35:49;;;;;;;6.57;2.27;;;11.30;99.90;;;;;;4950844;28;20265;-73
2022/11/10 05:38:15;;;;;;;7.27;2.93;;;11.40;99.90;;;;;;4952061;28;20206;-74
2022/11/10 05:40:41;;;;;;;7.33;2.50;;;11.30;99.90;;;;;;4944985;28;20257;-73
2022/11/10 05:43:06;;;;;;;9.53;2.33;;;11.30;99.90;;;;;;4949794;28;20604;-72
2022/11/10 05:45:32;;;;;;;9.43;3.00;;;11.30;99.90;;;;;;4947723;28;20218;-73
2022/11/10 05:47:58;;;;;;;6.73;3.20;;;11.30;99.90;;;;;;4970968;28;20191;-73
2022/11/10 05:50:24;;;;;;;9.93;2.97;;;11.30;99.90;;;;;;4953488;28;20222;-73
2022/11/10 05:52:53;;;;;;;9.40;2.87;;;11.30;99.90;;;;;;4943514;28;20576;-73
2022/11/10 05:55:22;;;;;;;10.97;3.07;;;11.30;99.90;;;;;;4956699;28;20257;-73
2022/11/10 05:57:49;;;;;;;6.97;2.50;;;11.20;99.90;;;;;;4952187;28;20305;-73
2022/11/10 06:00:16;;;;;;;6.80;2.50;;;11.20;99.90;;;;;;4954539;28;20220;-73
2022/11/10 06:02:43;;;;;;;8.37;2.43;;;11.20;99.90;;;;;;4954871;28;20183;-73
2022/11/10 06:05:09;;;;;;;10.43;3.33;;;11.20;99.90;;;;;;4955078;28;20299;-73
2022/11/10 06:07:37;;;;;;;6.93;2.70;;;11.20;99.90;;;;;;4972192;28;20210;-73
2022/11/10 06:10:03;;;;;;;8.37;2.47;;;11.20;99.90;;;;;;4974403;28;20222;-74
2022/11/10 06:12:29;;;;;;;5.67;2.40;;;11.20;99.90;;;;;;4959996;28;20256;-74
2022/11/10 06:14:56;;;;;;;7.77;2.87;;;11.20;99.90;;;;;;4993582;28;20216;-73
2022/11/10 06:17:26;;;;;;;7.60;2.63;;;11.20;99.90;;;;;;4975244;28;20300;-73
2022/11/10 06:19:51;;;;;;;10.13;2.57;;;11.20;99.90;;;;;;4968893;28;20217;-74
2022/11/10 06:22:17;;;;;;;6.43;2.37;;;11.20;99.90;;;;;;4978283;28;20212;-73
2022/11/10 06:24:43;;;;;;;3.87;2.53;;;11.20;99.90;;;;;;4968778;28;20759;-74
2022/11/10 06:27:08;;;;;;;7.37;3.00;;;11.20;99.90;;;;;;4966415;28;20186;-72
2022/11/10 06:29:34;;;;;;;8.87;2.67;;;11.10;99.90;;;;;;4975184;28;20245;-73
2022/11/10 06:32:00;;;;;;;9.43;3.40;;;11.20;99.90;;;;;;4971208;28;20242;-73
2022/11/10 06:34:26;;;;;;;11.63;4.20;;;11.20;99.90;;;;;;4967366;28;20230;-73
2022/11/10 06:36:52;;;;;;;7.77;4.57;;;11.20;99.90;;;;;;4966813;28;20210;-73
2022/11/10 06:39:17;;;;;;;8.73;3.00;;;11.30;99.90;;;;;;4946715;28;20199;-73
2022/11/10 06:41:43;;;;;;;8.90;2.90;;;11.30;99.90;;;;;;4955108;28;20233;-73
2022/11/10 06:44:10;;;;;;;9.30;3.00;;;11.30;99.90;;;;;;4957066;28;20215;-73
2022/11/10 06:46:36;;;;;;;9.90;3.10;;;11.40;99.90;;;;;;4947689;28;20207;-73
2022/11/10 06:49:03;;;;;;;6.13;3.03;;;11.40;99.90;;;;;;4957063;28;20211;-72
2022/11/10 06:51:28;;;;;;;8.67;2.73;;;11.50;99.90;;;;;;4950395;28;20260;-73
2022/11/10 06:53:54;;;;;;;7.70;2.93;;;11.60;99.90;;;;;;4944103;28;20256;-73
2022/11/10 06:56:19;;;;;;;5.43;2.73;;;11.60;99.90;;;;;;4962391;28;20214;-74
2022/11/10 06:58:45;;;;;;;7.73;2.70;;;11.60;99.90;;;;;;4951690;28;20219;-72
2022/11/10 07:01:11;;;;;;;8.23;2.53;;;11.80;99.90;;;;;;4950333;28;20211;-72
2022/11/10 07:03:36;;;;;;;8.10;3.07;;;11.90;99.90;;;;;;4955226;28;20207;-73
2022/11/10 07:06:02;;;;;;;7.53;2.90;;;12.30;99.90;;;;;;4951672;28;20643;-73
2022/11/10 07:08:28;;;;;;;11.93;3.00;;;13.30;99.90;;;;;;4957585;28;20293;-73
2022/11/10 07:10:54;;;;;;;8.05;2.92;;;14.20;99.90;;;;;;4952767;28;20405;-72
2022/11/10 07:13:23;;;;;;;9.07;2.60;;;15.00;99.90;;;;;;4948702;28;20211;-72
2022/11/10 07:15:48;;;;;;;8.05;3.03;;;15.70;99.90;;;;;;4952985;28;20310;-73
2022/11/10 07:18:14;;;;;;;6.28;2.40;;;15.70;99.90;;;;;;4956423;28;20720;-73
2022/11/10 07:20:40;;;;;;;6.90;2.47;;;15.20;99.90;;;;;;4948219;28;20674;-73
2022/11/10 07:23:07;;;;;;;6.63;2.35;;;14.50;99.90;;;;;;4958448;28;20247;-73
2022/11/10 07:25:35;;;;;;;9.95;2.75;;;13.90;99.90;;;;;;4954404;28;20273;-73
2022/11/10 07:28:04;;;;;;;7.72;2.58;;;13.40;99.90;;;;;;4960617;28;20210;-73
2022/11/10 07:30:32;;;;;;;7.30;2.72;;;13.00;99.90;;;;;;4958753;28;20642;-73
2022/11/10 07:32:57;;;;;;;10.45;3.75;;;12.80;99.90;;;;;;4954958;28;20176;-73
2022/11/10 07:35:23;;;;;;;16.17;3.42;;;12.70;99.90;;;;;;4957683;28;20265;-73
2022/11/10 07:37:49;;;;;;;9.68;3.00;;;12.60;99.90;;;;;;4954961;28;20222;-73
2022/11/10 07:40:14;;;;;;;8.20;2.67;;;12.40;99.90;;;;;;4963729;28;20305;-74
2022/11/10 07:42:40;;;;;;;7.53;3.10;;;12.30;99.90;;;;;;4952170;28;20207;-73
2022/11/10 07:45:06;;;;;;;9.93;3.00;;;12.20;99.90;;;;;;4955622;28;20179;-72
2022/11/10 07:47:32;;;;;;;6.57;3.10;;;12.40;99.90;;;;;;4947225;28;20207;-73
2022/11/10 07:49:57;;;;;;;4.53;2.65;;;13.50;99.90;;;;;;4956815;28;20262;-73
2022/11/10 07:52:23;;;;;;;7.82;2.90;;;14.50;99.90;;;;;;4960424;28;20278;-74
2022/11/10 07:54:49;;;;;;;6.55;2.50;;;15.20;99.90;;;;;;4944669;28;20623;-73
2022/11/10 07:57:14;;;;;;;6.80;3.13;;;15.70;99.90;;;;;;4973951;28;20194;-73
2022/11/10 07:59:40;;;;;;;10.52;3.13;;;16.00;99.90;;;;;;4950857;28;20223;-74
2022/11/10 08:02:09;;;;;;;7.90;2.60;;;16.00;99.90;;;;;;4954638;28;20682;-73
2022/11/10 08:04:35;;;;;;;6.50;2.47;;;15.30;99.90;;;;;;4955991;28;20253;-73
2022/11/10 08:07:01;;;;;;;15.38;5.70;;;15.30;99.90;;;;;;4953635;28;20670;-73
2022/11/10 08:09:26;;;;;;;12.23;5.35;;;15.50;99.90;;;;;;4959516;28;20208;-75
2022/11/10 08:11:52;;;;;;;13.68;4.97;;;15.80;99.90;;;;;;4955031;28;20180;-73
2022/11/10 08:14:17;;;;;;;12.00;4.45;;;15.80;99.90;;;;;;4947567;28;20206;-74
2022/11/10 08:16:43;;;;;;;10.65;3.90;;;15.80;99.90;;;;;;4957645;28;20214;-74
2022/11/10 08:19:09;;;;;;;6.45;2.55;;;15.70;99.90;;;;;;4953520;28;20230;-73
2022/11/10 08:21:34;;;;;;;10.70;3.42;;;15.70;99.90;;;;;;4966433;28;20221;-72
2022/11/10 08:24:00;;;;;;;9.25;2.83;;;15.80;99.90;;;;;;4958589;28;20188;-73
2022/11/10 08:26:25;;;;;;;7.18;2.92;;;15.50;99.90;;;;;;4952755;28;20263;-73
2022/11/10 08:28:51;;;;;;;9.50;2.90;;;15.30;99.90;;;;;;4950436;28;20284;-71
2022/11/10 08:31:17;;;;;;;9.13;2.97;;;15.00;99.90;;;;;;4958303;28;20325;-72
2022/11/10 08:33:42;;;;;;;9.60;2.85;;;15.00;99.90;;;;;;4945740;28;20631;-71
2022/11/10 08:36:08;;;;;;;7.00;2.88;;;15.10;99.90;;;;;;4951075;28;20184;-72
2022/11/10 08:38:34;;;;;;;9.43;2.92;;;14.90;99.90;;;;;;4955410;28;20207;-72
2022/11/10 08:40:59;;;;;;;13.38;3.45;;;15.10;99.90;;;;;;4946669;28;20230;-72
2022/11/10 08:43:25;;;;;;;11.63;3.50;;;15.30;99.90;;;;;;4955171;28;20561;-72
2022/11/10 08:45:54;;;;;;;10.27;2.85;;;15.40;99.90;;;;;;4953311;28;20286;-71
2022/11/10 08:48:20;;;;;;;10.13;3.20;;;15.60;99.90;;;;;;4950381;28;20175;-73
2022/11/10 08:50:46;;;;;;;10.20;3.25;;;15.70;99.90;;;;;;4953618;28;20218;-73
2022/11/10 08:53:14;;;;;;;10.48;3.05;;;15.60;99.90;;;;;;4949966;28;22299;-72
2022/11/10 08:55:41;;;;;;;6.50;2.53;;;15.40;99.90;;;;;;4945260;28;20226;-72
2022/11/10 08:58:10;;;;;;;6.22;2.85;;;15.70;99.90;;;;;;4957634;28;20255;-71
2022/11/10 09:00:35;;;;;;;11.90;3.42;;;16.00;99.90;;;;;;4948933;28;20227;-73
2022/11/10 09:03:14;;;;;;;5.70;2.50;;;15.80;99.90;;;;;;4954322;28;20218;-72
2022/11/10 09:05:40;;;;;;;9.07;3.35;;;15.80;99.90;;;;;;4968594;28;20227;-72
2022/11/10 09:08:06;;;;;;;9.27;3.53;;;15.90;99.90;;;;;;4966937;28;20263;-71
2022/11/10 09:10:35;;;;;;;12.30;3.33;;;15.90;99.90;;;;;;4979159;28;20333;-72
2022/11/10 09:13:02;;;;;;;12.55;3.42;;;15.90;99.90;;;;;;4970175;28;20229;-72
2022/11/10 09:15:29;;;;;;;12.45;3.03;;;15.50;99.90;;;;;;4971254;28;20324;-72
2022/11/10 09:17:59;;;;;;;9.98;3.13;;;15.40;99.90;;;;;;4975766;28;20245;-73
2022/11/10 09:20:26;;;;;;;9.15;2.88;;;15.50;99.90;;;;;;4971215;28;20214;-71
2022/11/10 09:22:52;;;;;;;7.47;3.63;;;15.40;99.90;;;;;;4975126;28;20299;-74
2022/11/10 09:25:18;;;;;;;8.70;4.18;;;15.00;99.90;;;;;;4976794;28;20974;-72
2022/11/10 09:27:43;;;;;;;9.98;3.25;;;15.10;99.90;;;;;;4965592;28;20210;-72
2022/11/10 09:30:09;;;;;;;7.68;3.03;;;15.10;99.90;;;;;;4975254;28;20250;-72
2022/11/10 09:32:35;;;;;;;7.65;3.28;;;15.10;99.90;;;;;;4971612;28;20255;-72
2022/11/10 09:35:01;;;;;;;9.65;4.13;;;15.00;99.90;;;;;;4976925;28;20233;-72
2022/11/10 09:37:27;;;;;;;5.78;3.38;;;15.10;99.90;;;;;;4978524;28;20229;-74
2022/11/10 09:39:53;;;;;;;6.25;3.00;;;15.20;99.90;;;;;;4971953;28;20225;-73
2022/11/10 09:42:38;;;;;;;7.50;2.85;;;15.30;99.90;;;;;;4976506;28;20535;-75
2022/11/10 09:45:26;;;;;;;7.95;3.08;;;15.20;99.90;;;;;;4977432;28;20183;-72
2022/11/10 09:48:04;;;;;;;10.98;3.45;;;15.00;99.90;;;;;;4971670;28;20217;-75
2022/11/10 09:50:40;;;;;;;11.90;3.58;;;15.30;99.90;;;;;;4969174;28;20240;-74
2022/11/10 09:53:15;;;;;;;8.15;4.05;;;15.80;99.90;;;;;;4974174;28;20221;-74
2022/11/10 09:55:48;;;;;;;8.85;3.25;;;16.00;99.90;;;;;;4973146;28;20205;-74
2022/11/10 09:58:15;;;;;;;10.02;3.35;;;16.20;99.90;;;;;;4967489;28;20225;-75
2022/11/10 10:00:45;;;;;;;9.70;3.13;;;16.10;99.90;;;;;;4968232;28;20647;-73
2022/11/10 10:03:18;;;;;;;8.95;3.80;;;15.90;99.90;;;;;;4988259;28;20183;-76
2022/11/10 10:06:03;;;;;;;11.23;3.78;;;15.80;99.90;;;;;;4972093;28;20676;-73
2022/11/10 10:08:59;;;;;;;8.00;3.03;;;15.40;99.90;;;;;;4964804;28;20693;-74
2022/11/10 10:11:39;;;;;;;15.15;4.40;;;15.40;99.90;;;;;;4968934;28;20696;-74
2022/11/10 10:14:22;;;;;;;13.02;3.83;;;15.20;99.90;;;;;;4967162;28;20215;-72
2022/11/10 10:17:21;;;;;;;11.13;3.90;;;15.20;99.90;;;;;;4969642;28;20246;-74
2022/11/10 10:20:18;;;;;;;8.35;4.20;;;15.30;99.90;;;;;;4967071;28;20773;-73
2022/11/10 10:22:55;;;;;;;12.25;3.65;;;15.40;99.90;;;;;;4961216;28;20592;-73
2022/11/10 10:25:24;;;;;;;11.80;5.18;;;15.40;99.90;;;;;;4968204;28;20291;-75
2022/11/10 10:28:17;;;;;;;7.80;3.90;;;15.40;99.90;;;;;;4966598;28;20218;-74
2022/11/10 10:30:44;;;;;;;12.85;3.92;;;15.40;99.90;;;;;;4973861;28;20229;-74
2022/11/10 10:33:20;;;;;;;11.52;3.15;;;15.50;99.90;;;;;;4970908;28;20190;-73
2022/11/10 10:35:49;;;;;;;9.73;3.22;;;15.60;99.90;;;;;;4964260;28;20384;-74
2022/11/10 10:38:24;;;;;;;8.65;3.30;;;15.60;99.90;;;;;;4978395;28;20275;-73
2022/11/10 10:40:51;;;;;;;9.50;3.25;;;15.60;99.90;;;;;;4967494;28;20225;-75
2022/11/10 10:43:17;;;;;;;9.57;3.25;;;15.70;99.90;;;;;;4968314;28;20216;-75
2022/11/10 10:45:43;;;;;;;8.82;3.55;;;15.40;99.90;;;;;;4971809;28;20226;-73
2022/11/10 10:48:26;;;;;;;8.95;3.10;;;15.50;99.90;;;;;;4969557;28;20183;-74
2022/11/10 10:50:51;;;;;;;9.70;2.95;;;15.40;99.90;;;;;;4966547;28;20190;-73
2022/11/10 10:53:20;;;;;;;13.63;3.58;;;15.40;99.90;;;;;;4964848;28;20261;-71
2022/11/10 10:56:04;;;;;;;7.63;3.00;;;15.30;99.90;;;;;;4966968;28;20233;-72
2022/11/10 10:58:56;;;;;;;7.85;2.75;;;15.40;99.90;;;;;;4988381;28;20241;-74
2022/11/10 11:01:42;;;;;;;11.80;3.25;;;15.40;99.90;;;;;;4966561;28;20218;-72
2022/11/10 11:04:31;;;;;;;7.50;3.10;;;15.50;99.90;;;;;;4970876;28;20369;-73
2022/11/10 11:07:21;;;;;;;8.40;2.97;;;15.50;99.90;;;;;;4969726;28;20211;-72
2022/11/10 11:09:46;;;;;;;8.13;3.00;;;15.40;99.90;;;;;;4964153;28;20211;-72
2022/11/10 11:12:33;;;;;;;10.13;3.38;;;15.60;99.90;;;;;;4983307;28;20189;-72
2022/11/10 11:15:18;;;;;;;8.13;3.05;;;15.70;99.90;;;;;;4970251;28;20186;-72
2022/11/10 11:18:02;;;;;;;9.10;2.70;;;15.80;99.90;;;;;;4967204;28;20233;-77
2022/11/10 11:20:45;;;;;;;11.90;3.08;;;15.90;99.90;;;;;;4970774;28;20252;-76
2022/11/10 11:23:38;;;;;;;11.95;3.50;;;16.00;99.90;;;;;;4967210;28;20218;-72
2022/11/10 11:26:23;;;;;;;9.45;3.28;;;15.90;99.90;;;;;;4974241;28;20728;-71
2022/11/10 11:29:10;;;;;;;6.45;2.42;;;15.80;99.90;;;;;;4965918;28;20741;-74
2022/11/10 11:31:38;;;;;;;9.27;3.00;;;15.70;99.90;;;;;;4974624;28;20233;-73
2022/11/10 11:34:24;;;;;;;7.70;3.33;;;15.50;99.90;;;;;;4971046;28;20211;-71
2022/11/10 11:37:01;;;;;;;11.90;3.50;;;15.50;99.90;;;;;;4962314;28;20214;-74
2022/11/10 11:39:47;;;;;;;8.85;2.63;;;15.50;99.90;;;;;;4971620;28;20683;-75
2022/11/10 11:42:37;;;;;;;10.30;2.83;;;15.60;99.90;;;;;;4971954;28;20190;-72
2022/11/10 11:45:17;;;;;;;8.05;2.75;;;15.50;99.90;;;;;;4973861;28;20179;-71
2022/11/10 11:48:13;;;;;;;9.18;2.65;;;15.40;99.90;;;;;;4972175;28;20202;-73
2022/11/10 11:50:54;;;;;;;8.13;2.63;;;15.50;99.90;;;;;;4981272;28;20273;-74
2022/11/10 11:54:06;;;;;;;11.63;3.25;;;15.50;99.90;;;;;;4974515;28;20289;-74
2022/11/10 11:56:38;;;;;;;15.07;3.20;;;15.50;99.90;;;;;;4972671;28;20233;-74
2022/11/10 11:59:23;;;;;;;7.55;2.50;;;15.60;99.90;;;;;;4977147;28;20218;-74
2022/11/10 12:02:40;;;;;;;7.60;2.90;;;15.60;99.90;;;;;;4970342;28;20581;-74
2022/11/10 12:05:35;;;;;;;7.28;2.53;;;15.60;99.90;;;;;;4983888;28;20252;-72
2022/11/10 12:08:13;;;;;;;8.27;2.72;;;15.50;99.90;;;;;;4986562;28;20736;-74
2022/11/10 12:10:57;;;;;;;8.43;2.90;;;15.40;99.90;;;;;;4981114;28;20210;-75
2022/11/10 12:13:56;;;;;;;10.18;2.90;;;15.40;99.90;;;;;;4973563;28;20206;-75
2022/11/10 12:16:29;;;;;;;7.55;2.58;;;15.40;99.90;;;;;;4987150;28;20210;-74
2022/11/10 12:19:02;;;;;;;11.43;2.92;;;15.40;99.90;;;;;;4972262;28;20769;-75
2022/11/10 12:21:49;;;;;;;9.07;2.67;;;15.30;99.90;;;;;;4976329;28;20230;-74
2022/11/10 12:24:59;;;;;;;10.07;2.97;;;15.10;99.90;;;;;;4977085;28;20178;-74
2022/11/10 12:27:31;;;;;;;7.70;2.35;;;15.20;99.90;;;;;;4977145;28;20256;-74
2022/11/10 12:30:16;;;;;;;9.32;2.35;;;15.50;99.90;;;;;;4971696;28;20230;-73
2022/11/10 12:33:11;;;;;;;8.65;2.50;;;15.60;99.90;;;;;;4952971;28;20219;-75
2022/11/10 12:35:41;;;;;;;14.30;3.20;;;15.60;99.90;;;;;;4966544;28;20218;-74
2022/11/10 12:38:14;;;;;;;9.57;2.92;;;15.60;99.90;;;;;;4964201;28;20250;-75
2022/11/10 12:40:50;;;;;;;7.72;2.75;;;15.50;99.90;;;;;;4969965;28;20245;-75
2022/11/10 12:44:13;;;;;;;9.75;3.30;;;15.50;99.90;;;;;;4968664;28;20651;-75
2022/11/10 12:46:41;;;;;;;9.82;2.67;;;15.40;99.90;;;;;;4988438;28;20229;-73
2022/11/10 12:49:18;;;;;;;11.98;2.92;;;15.20;99.90;;;;;;4984631;28;20648;-74
2022/11/10 12:52:14;;;;;;;9.05;2.90;;;15.20;99.90;;;;;;4970641;28;20210;-74
2022/11/10 12:54:42;;;;;;;10.25;2.60;;;15.10;99.90;;;;;;4963759;28;20206;-76
2022/11/10 12:57:16;;;;;;;7.75;2.30;;;15.20;99.90;;;;;;4966777;28;20609;-75
2022/11/10 13:00:29;;;;;;;9.48;2.58;;;15.20;99.90;;;;;;4968035;28;20712;-74
2022/11/10 13:02:57;;;;;;;8.35;2.97;;;15.40;99.90;;;;;;4985217;23;20242;-74
2022/11/10 13:05:27;;;;;;;5.60;2.75;;;15.50;99.90;;;;;;4972528;28;20222;-74
2022/11/10 13:08:26;;;;;;;7.28;2.83;;;15.60;99.90;;;;;;4967092;28;20237;-73
2022/11/10 13:11:03;;;;;;;11.57;3.05;;;15.70;99.90;;;;;;4948920;28;20205;-73
2022/11/10 13:13:38;;;;;;;8.20;2.22;;;15.70;99.90;;;;;;4953863;28;20218;-78